Time;durP1;ratioP1;P1;durP2;ratioP2;P2;SDS_P1;SDS_P2;PMS_P1;PMS_P2;Temp;Humidity;BMP_temperature;BMP_pressure;BME280_temperature;BME280_humidity;BME280_pressure;Samples;Min_cycle;Max_cycle;Signal;HPM_P1;HPM_P2
2023/03/01 00:01:07;;;;;;;6.27;5.73;;;22.00;51.30;;;;;;4975465;28;20495;-72
2023/03/01 00:03:36;;;;;;;6.97;6.37;;;22.00;51.30;;;;;;4975547;28;20449;-72
2023/03/01 00:06:05;;;;;;;6.40;5.80;;;22.00;51.40;;;;;;4975102;28;20424;-72
2023/03/01 00:08:34;;;;;;;6.87;6.17;;;22.00;51.40;;;;;;4975631;28;20470;-72
2023/03/01 00:11:06;;;;;;;6.37;5.77;;;21.90;51.50;;;;;;4975607;28;20430;-72
2023/03/01 00:13:35;;;;;;;5.87;5.40;;;21.90;51.50;;;;;;4975207;28;20457;-72
2023/03/01 00:16:04;;;;;;;5.97;5.37;;;21.90;51.60;;;;;;4974900;28;20503;-72
2023/03/01 00:18:32;;;;;;;5.30;4.80;;;21.90;51.60;;;;;;4975511;28;20893;-72
2023/03/01 00:21:01;;;;;;;5.80;5.30;;;21.80;51.60;;;;;;4974950;28;20425;-72
2023/03/01 00:23:29;;;;;;;6.03;5.53;;;21.80;51.60;;;;;;4975188;28;20823;-72
2023/03/01 00:25:57;;;;;;;5.20;4.80;;;21.80;51.60;;;;;;4974433;28;20448;-72
2023/03/01 00:28:26;;;;;;;6.80;5.80;;;21.80;51.60;;;;;;4975007;28;20485;-72
2023/03/01 00:30:55;;;;;;;6.30;5.53;;;21.80;51.60;;;;;;4975345;28;20459;-71
2023/03/01 00:33:23;;;;;;;5.90;5.50;;;21.80;51.60;;;;;;4974328;28;20564;-72
2023/03/01 00:35:51;;;;;;;5.13;4.63;;;21.80;51.60;;;;;;4975068;28;20897;-72
2023/03/01 00:38:19;;;;;;;5.60;5.10;;;21.80;51.60;;;;;;4975346;28;20905;-72
2023/03/01 00:40:47;;;;;;;5.73;5.33;;;21.80;51.70;;;;;;4974747;28;20917;-72
2023/03/01 00:43:15;;;;;;;5.17;4.77;;;21.80;51.70;;;;;;4975292;28;20469;-72
2023/03/01 00:45:45;;;;;;;5.63;5.10;;;21.80;51.60;;;;;;4975511;28;20458;-72
2023/03/01 00:48:13;;;;;;;6.33;5.73;;;21.80;51.50;;;;;;4975022;28;20422;-72
2023/03/01 00:50:41;;;;;;;7.87;6.30;;;21.80;51.40;;;;;;4974599;28;20906;-72
2023/03/01 00:53:09;;;;;;;4.70;4.33;;;21.80;51.30;;;;;;4974644;28;20464;-72
2023/03/01 00:55:37;;;;;;;5.77;5.27;;;21.90;51.20;;;;;;4974910;28;20945;-72
2023/03/01 00:58:06;;;;;;;6.27;5.67;;;21.90;51.00;;;;;;4973589;28;20764;-72
2023/03/01 01:00:34;;;;;;;6.90;6.20;;;21.90;50.90;;;;;;4974894;28;20467;-72
2023/03/01 01:03:04;;;;;;;6.60;6.00;;;21.90;50.80;;;;;;4974672;28;20434;-72
2023/03/01 01:05:35;;;;;;;5.57;5.07;;;22.00;50.70;;;;;;4973960;28;20457;-72
2023/03/01 01:08:03;;;;;;;5.70;5.30;;;22.00;50.60;;;;;;4974845;28;20425;-72
2023/03/01 01:10:31;;;;;;;5.30;4.80;;;22.00;50.50;;;;;;4973395;28;20990;-72
2023/03/01 01:15:34;;;;;;;6.70;5.70;;;22.00;50.50;;;;;;4992503;23;20517;-72
2023/03/01 01:18:04;;;;;;;6.13;5.60;;;21.90;50.40;;;;;;4975266;28;20857;-72
2023/03/01 01:20:33;;;;;;;6.37;5.77;;;21.90;50.30;;;;;;4960238;28;20452;-72
2023/03/01 01:23:01;;;;;;;6.47;5.77;;;21.90;50.30;;;;;;4960932;28;20465;-72
2023/03/01 01:25:29;;;;;;;6.03;5.53;;;21.90;50.30;;;;;;4978457;28;20454;-72
2023/03/01 01:27:57;;;;;;;5.70;5.10;;;21.90;50.30;;;;;;4961269;28;20459;-72
2023/03/01 01:30:26;;;;;;;6.40;5.80;;;21.80;50.30;;;;;;4961853;28;20496;-72
2023/03/01 01:32:54;;;;;;;6.30;5.80;;;21.80;50.30;;;;;;4978013;28;20551;-72
2023/03/01 01:35:24;;;;;;;6.27;5.77;;;21.80;50.20;;;;;;4977622;28;20843;-72
2023/03/01 01:37:52;;;;;;;5.83;5.33;;;21.80;50.20;;;;;;4978193;28;20428;-72
2023/03/01 01:40:21;;;;;;;5.83;5.23;;;21.80;50.20;;;;;;4978339;28;20486;-72
2023/03/01 01:42:49;;;;;;;6.10;5.60;;;21.80;50.30;;;;;;4960860;28;20512;-72
2023/03/01 01:45:30;;;;;;;5.63;5.13;;;21.80;50.20;;;;;;4960310;28;20543;-72
2023/03/01 01:48:03;;;;;;;5.90;5.30;;;21.80;50.20;;;;;;4978018;28;20513;-72
2023/03/01 01:50:37;;;;;;;6.20;5.70;;;21.70;50.30;;;;;;4961089;28;20455;-72
2023/03/01 01:53:10;;;;;;;6.33;5.83;;;21.80;50.30;;;;;;4977841;28;20466;-72
2023/03/01 01:55:41;;;;;;;5.67;5.20;;;21.80;50.30;;;;;;4977856;28;20430;-72
2023/03/01 01:58:11;;;;;;;6.63;5.50;;;21.80;50.30;;;;;;4977830;28;20452;-72
2023/03/01 02:00:40;;;;;;;5.47;5.00;;;21.80;50.30;;;;;;4960876;28;20456;-72
2023/03/01 02:03:12;;;;;;;5.57;5.07;;;21.80;50.30;;;;;;4977594;28;20461;-72
2023/03/01 02:05:47;;;;;;;6.33;5.73;;;21.80;50.20;;;;;;4959823;28;20913;-72
2023/03/01 02:08:24;;;;;;;6.53;5.90;;;21.80;50.20;;;;;;4976917;28;20448;-72
2023/03/01 02:10:53;;;;;;;5.70;5.20;;;21.80;50.10;;;;;;4977697;28;20430;-72
2023/03/01 02:13:21;;;;;;;5.10;4.60;;;21.80;50.10;;;;;;4977270;28;20480;-72
2023/03/01 02:15:49;;;;;;;6.00;5.40;;;21.80;50.00;;;;;;4960462;28;20909;-72
2023/03/01 02:18:21;;;;;;;7.13;6.53;;;21.90;49.90;;;;;;4960484;28;20454;-72
2023/03/01 02:21:09;;;;;;;6.67;6.07;;;21.90;49.90;;;;;;4977295;28;20532;-72
2023/03/01 02:23:37;;;;;;;6.17;5.67;;;21.90;49.80;;;;;;4977375;28;20538;-72
2023/03/01 02:26:13;;;;;;;6.17;5.67;;;21.90;49.80;;;;;;4959676;28;20468;-72
2023/03/01 02:28:44;;;;;;;6.23;5.63;;;21.90;49.70;;;;;;4959796;28;20522;-72
2023/03/01 02:34:17;;;;;;;6.40;5.57;;;21.80;49.70;;;;;;4943675;28;20492;-72
2023/03/01 02:36:48;;;;;;;6.47;5.97;;;21.80;49.70;;;;;;4976825;28;20519;-72
2023/03/01 02:39:21;;;;;;;6.10;5.50;;;21.80;49.60;;;;;;4959654;28;20856;-72
2023/03/01 02:41:52;;;;;;;6.13;5.63;;;21.80;49.60;;;;;;4959606;28;20537;-72
2023/03/01 02:44:22;;;;;;;5.70;5.20;;;21.80;49.60;;;;;;4976899;28;20452;-72
2023/03/01 02:46:52;;;;;;;6.67;6.07;;;21.80;49.60;;;;;;4976547;28;20492;-72
2023/03/01 02:49:24;;;;;;;6.50;5.90;;;21.80;49.70;;;;;;4976827;28;20469;-72
2023/03/01 02:52:15;;;;;;;6.33;5.73;;;21.80;49.70;;;;;;4959641;28;20508;-72
2023/03/01 02:54:47;;;;;;;6.37;5.77;;;21.80;49.80;;;;;;4976734;28;20470;-72
2023/03/01 02:57:16;;;;;;;6.07;5.57;;;21.70;49.80;;;;;;4959163;28;20902;-72
2023/03/01 02:59:47;;;;;;;6.80;5.40;;;21.70;49.80;;;;;;4959308;28;20457;-72
2023/03/01 03:02:35;;;;;;;6.03;5.50;;;21.70;49.80;;;;;;4976736;28;20445;-72
2023/03/01 03:05:11;;;;;;;5.70;5.20;;;21.70;49.80;;;;;;4959221;28;20552;-72
2023/03/01 03:07:42;;;;;;;5.60;5.10;;;21.70;49.90;;;;;;4959480;28;20493;-72
2023/03/01 03:10:13;;;;;;;6.03;5.47;;;21.70;49.90;;;;;;4959527;28;20463;-72
2023/03/01 03:12:42;;;;;;;6.47;5.80;;;21.70;49.90;;;;;;4976491;28;20898;-72
2023/03/01 03:15:12;;;;;;;6.00;5.60;;;21.70;49.90;;;;;;4976949;28;20496;-72
2023/03/01 03:17:42;;;;;;;6.03;5.60;;;21.70;49.90;;;;;;4976903;28;20425;-72
2023/03/01 03:20:18;;;;;;;5.67;5.20;;;21.70;49.90;;;;;;4976126;28;20425;-72
2023/03/01 03:22:48;;;;;;;5.93;5.37;;;21.70;49.80;;;;;;4976085;28;20441;-72
2023/03/01 03:25:17;;;;;;;5.80;5.30;;;21.70;49.90;;;;;;4975674;28;20476;-72
2023/03/01 03:27:47;;;;;;;6.87;6.20;;;21.70;49.80;;;;;;4976178;28;20429;-72
2023/03/01 03:30:21;;;;;;;6.03;5.53;;;21.70;49.80;;;;;;4975822;28;20900;-72
2023/03/01 03:32:52;;;;;;;6.83;6.23;;;21.70;49.80;;;;;;4975875;28;20505;-72
2023/03/01 03:35:22;;;;;;;5.57;5.07;;;21.80;49.80;;;;;;4975519;28;20493;-72
2023/03/01 03:38:03;;;;;;;5.80;5.30;;;21.80;49.70;;;;;;4975566;28;20437;-72
2023/03/01 03:40:35;;;;;;;5.43;5.03;;;21.80;49.70;;;;;;4976125;28;20450;-72
2023/03/01 03:43:03;;;;;;;6.97;6.37;;;21.80;49.70;;;;;;4974954;28;20467;-72
2023/03/01 03:45:34;;;;;;;6.50;6.10;;;21.80;49.70;;;;;;4976058;28;20554;-72
2023/03/01 03:48:05;;;;;;;6.17;5.67;;;21.80;49.70;;;;;;4975453;28;20420;-72
2023/03/01 03:50:34;;;;;;;6.23;5.67;;;21.80;49.60;;;;;;4975724;28;20898;-72
2023/03/01 03:53:03;;;;;;;6.17;5.67;;;21.80;49.60;;;;;;4975663;28;20480;-72
2023/03/01 03:55:33;;;;;;;5.57;5.07;;;21.80;49.50;;;;;;4975521;28;20564;-72
2023/03/01 03:58:10;;;;;;;5.37;4.87;;;21.80;49.50;;;;;;4976131;28;20806;-72
2023/03/01 04:00:41;;;;;;;6.60;6.10;;;21.70;49.50;;;;;;4958606;28;20457;-72
2023/03/01 04:03:11;;;;;;;6.33;5.73;;;21.80;49.50;;;;;;4975877;28;20916;-72
2023/03/01 04:05:40;;;;;;;7.13;6.20;;;21.80;49.40;;;;;;4975332;28;20504;-72
2023/03/01 04:08:09;;;;;;;5.50;5.07;;;21.70;49.30;;;;;;4975584;28;20513;-72
2023/03/01 04:10:39;;;;;;;6.00;5.50;;;21.70;49.30;;;;;;4975521;28;20433;-72
2023/03/01 04:13:10;;;;;;;6.20;5.67;;;21.80;49.30;;;;;;4975743;28;20753;-72
2023/03/01 04:15:40;;;;;;;5.97;5.37;;;21.70;49.30;;;;;;4975058;28;20465;-72
2023/03/01 04:18:13;;;;;;;6.50;6.00;;;21.70;49.30;;;;;;4975475;28;20508;-72
2023/03/01 04:20:41;;;;;;;6.20;5.70;;;21.70;49.20;;;;;;4975289;28;20438;-72
2023/03/01 04:23:13;;;;;;;6.13;5.63;;;21.70;49.20;;;;;;4975020;28;20427;-72
2023/03/01 04:25:43;;;;;;;6.23;5.63;;;21.70;49.30;;;;;;4975043;28;20445;-72
2023/03/01 04:28:11;;;;;;;5.93;5.37;;;21.70;49.20;;;;;;4975798;28;20505;-72
2023/03/01 04:30:41;;;;;;;6.10;5.60;;;21.70;49.30;;;;;;4975338;28;20434;-72
2023/03/01 04:33:10;;;;;;;5.87;5.47;;;21.70;49.30;;;;;;4974777;28;20543;-72
2023/03/01 04:35:40;;;;;;;6.80;6.20;;;21.70;49.30;;;;;;4974640;28;20510;-72
2023/03/01 04:38:09;;;;;;;5.30;4.90;;;21.70;49.30;;;;;;4975056;28;20438;-72
2023/03/01 04:40:38;;;;;;;6.33;5.83;;;21.70;49.40;;;;;;4974455;28;20421;-72
2023/03/01 04:43:06;;;;;;;6.50;5.90;;;21.70;49.40;;;;;;4974591;28;20784;-72
2023/03/01 04:45:35;;;;;;;6.27;5.67;;;21.70;49.40;;;;;;4974590;28;20432;-72
2023/03/01 04:48:05;;;;;;;5.40;5.00;;;21.70;49.40;;;;;;4974744;28;20438;-72
2023/03/01 04:50:34;;;;;;;5.93;5.33;;;21.70;49.40;;;;;;4957724;28;20890;-72
2023/03/01 04:53:02;;;;;;;5.37;4.97;;;21.70;49.40;;;;;;4974690;28;20449;-72
2023/03/01 04:55:31;;;;;;;7.10;6.40;;;21.70;49.30;;;;;;4977459;28;20467;-72
2023/03/01 04:57:59;;;;;;;6.13;5.63;;;21.70;49.30;;;;;;4978770;28;20435;-72
2023/03/01 05:00:27;;;;;;;5.20;4.80;;;21.70;49.30;;;;;;4978902;28;20521;-72
2023/03/01 05:02:57;;;;;;;6.77;6.07;;;21.70;49.30;;;;;;4977926;28;20837;-72
2023/03/01 05:05:31;;;;;;;10.50;5.90;;;21.70;49.30;;;;;;4978321;28;20425;-72
2023/03/01 05:08:00;;;;;;;5.67;5.27;;;21.70;49.20;;;;;;4978701;28;20442;-72
2023/03/01 05:10:31;;;;;;;6.17;5.70;;;21.70;49.20;;;;;;4978485;28;20750;-72
2023/03/01 05:13:00;;;;;;;6.17;5.63;;;21.70;49.20;;;;;;4978068;28;20461;-72
2023/03/01 05:15:30;;;;;;;5.90;5.50;;;21.70;49.20;;;;;;4979103;28;20940;-72
2023/03/01 05:18:00;;;;;;;6.70;6.13;;;21.70;49.10;;;;;;4978881;28;20491;-73
2023/03/01 05:20:31;;;;;;;5.60;5.10;;;21.70;49.20;;;;;;4961724;28;20759;-72
2023/03/01 05:23:04;;;;;;;6.67;6.17;;;21.70;49.20;;;;;;4961111;28;20880;-72
2023/03/01 05:25:34;;;;;;;6.13;5.53;;;21.70;49.20;;;;;;4961541;28;20458;-72
2023/03/01 05:28:04;;;;;;;7.30;5.27;;;21.70;49.20;;;;;;4960860;28;20458;-72
2023/03/01 05:30:33;;;;;;;5.87;5.27;;;21.70;49.20;;;;;;4977805;28;20960;-72
2023/03/01 05:33:02;;;;;;;8.17;5.60;;;21.70;49.30;;;;;;4978041;28;20429;-72
2023/03/01 05:35:34;;;;;;;5.83;5.33;;;21.70;49.40;;;;;;4978499;28;20468;-72
2023/03/01 05:38:02;;;;;;;6.00;5.50;;;21.70;49.50;;;;;;4978033;28;20490;-72
2023/03/01 05:40:30;;;;;;;5.83;5.30;;;21.70;49.50;;;;;;4977881;28;20462;-72
2023/03/01 05:42:59;;;;;;;5.97;5.50;;;21.70;49.60;;;;;;4977965;28;20521;-72
2023/03/01 05:45:29;;;;;;;5.50;5.00;;;21.60;49.60;;;;;;4961311;28;20471;-72
2023/03/01 05:47:57;;;;;;;5.57;5.10;;;21.60;49.70;;;;;;4978490;28;20458;-72
2023/03/01 05:50:28;;;;;;;6.57;5.97;;;21.60;49.70;;;;;;4977425;28;20455;-72
2023/03/01 05:53:01;;;;;;;5.33;4.83;;;21.70;49.60;;;;;;4977902;28;20447;-72
2023/03/01 05:55:31;;;;;;;4.53;4.13;;;21.60;49.70;;;;;;4977566;28;20792;-72
2023/03/01 05:58:00;;;;;;;5.77;5.37;;;21.70;49.80;;;;;;4960763;28;20524;-72
2023/03/01 06:00:29;;;;;;;7.73;5.03;;;21.70;49.90;;;;;;4977754;28;20821;-72
2023/03/01 06:02:59;;;;;;;6.43;5.07;;;21.70;50.00;;;;;;4977732;28;20455;-72
2023/03/01 06:05:28;;;;;;;7.13;5.30;;;21.70;50.10;;;;;;4976885;28;20429;-72
2023/03/01 06:08:01;;;;;;;6.63;5.57;;;21.70;50.00;;;;;;4977361;28;20481;-72
2023/03/01 06:10:30;;;;;;;4.80;4.40;;;21.70;50.20;;;;;;4977069;28;20422;-72
2023/03/01 06:12:59;;;;;;;5.87;5.27;;;21.60;50.20;;;;;;4977592;28;20931;-72
2023/03/01 06:15:27;;;;;;;5.60;5.10;;;21.70;50.30;;;;;;4978068;28;20480;-72
2023/03/01 06:17:56;;;;;;;6.13;5.53;;;21.60;50.30;;;;;;4977224;28;20427;-72
2023/03/01 06:20:29;;;;;;;8.80;6.17;;;21.60;50.30;;;;;;4977164;28;20430;-72
2023/03/01 06:22:58;;;;;;;5.33;4.93;;;21.60;50.40;;;;;;4977083;28;20738;-72
2023/03/01 06:25:28;;;;;;;5.33;4.93;;;21.60;50.40;;;;;;4976815;28;20457;-72
2023/03/01 06:27:56;;;;;;;5.23;4.67;;;21.60;50.50;;;;;;4977274;28;20425;-72
2023/03/01 06:30:26;;;;;;;4.77;4.47;;;21.60;50.50;;;;;;4977602;28;20912;-72
2023/03/01 06:33:00;;;;;;;6.20;5.50;;;21.60;50.50;;;;;;4977175;28;20445;-71
2023/03/01 06:35:30;;;;;;;4.93;4.53;;;21.60;50.50;;;;;;4976784;28;20474;-72
2023/03/01 06:38:00;;;;;;;5.60;5.10;;;21.60;50.60;;;;;;4977251;28;20547;-72
2023/03/01 06:40:30;;;;;;;5.67;5.00;;;21.60;50.60;;;;;;4976443;28;20477;-72
2023/03/01 06:42:59;;;;;;;6.00;5.37;;;21.60;50.80;;;;;;4976997;28;20519;-75
2023/03/01 06:45:27;;;;;;;6.00;5.40;;;21.60;50.80;;;;;;4976671;28;20420;-72
2023/03/01 06:48:04;;;;;;;5.60;5.10;;;21.60;50.80;;;;;;4976475;28;20422;-72
2023/03/01 06:50:32;;;;;;;6.17;4.80;;;21.60;50.80;;;;;;4976768;28;20431;-74
2023/03/01 06:53:00;;;;;;;5.27;4.87;;;21.50;50.80;;;;;;4976515;28;20473;-72
2023/03/01 06:55:30;;;;;;;5.93;5.33;;;21.60;50.90;;;;;;4976941;28;20491;-72
2023/03/01 06:57:59;;;;;;;7.50;5.10;;;21.60;50.90;;;;;;4976458;28;20916;-72
2023/03/01 07:00:28;;;;;;;5.60;5.10;;;21.60;50.90;;;;;;4976365;28;20433;-72
2023/03/01 07:02:58;;;;;;;5.63;5.20;;;21.60;50.90;;;;;;4976607;28;20437;-72
2023/03/01 07:05:27;;;;;;;6.00;5.40;;;21.60;50.90;;;;;;4976549;28;20481;-72
2023/03/01 07:07:56;;;;;;;5.10;4.70;;;21.60;50.90;;;;;;4976532;28;20430;-72
2023/03/01 07:10:24;;;;;;;6.20;5.60;;;21.60;50.90;;;;;;4976141;28;20442;-72
2023/03/01 07:12:57;;;;;;;6.20;5.63;;;21.60;50.80;;;;;;4959298;28;20505;-73
2023/03/01 07:15:26;;;;;;;5.07;4.57;;;21.70;50.80;;;;;;4975663;28;21043;-72
2023/03/01 07:17:54;;;;;;;6.37;5.73;;;21.70;50.70;;;;;;4975047;28;20461;-72
2023/03/01 07:20:24;;;;;;;6.30;5.80;;;21.70;50.60;;;;;;4976347;28;20873;-72
2023/03/01 07:22:53;;;;;;;5.50;5.00;;;21.70;50.60;;;;;;4975771;28;20432;-72
2023/03/01 07:25:21;;;;;;;6.30;5.67;;;21.70;50.50;;;;;;4976511;28;20525;-72
2023/03/01 07:27:51;;;;;;;77.33;49.03;;;21.70;50.60;;;;;;4975668;28;20474;-73
2023/03/01 07:30:21;;;;;;;17.77;11.63;;;21.70;51.30;;;;;;4975627;28;20864;-74
2023/03/01 07:32:49;;;;;;;323.73;180.27;;;21.70;50.80;;;;;;4975429;28;20428;-71
2023/03/01 07:35:17;;;;;;;117.90;72.10;;;21.70;51.40;;;;;;4975740;28;20429;-71
2023/03/01 07:37:46;;;;;;;38.00;26.63;;;21.80;51.60;;;;;;4975676;28;20904;-72
2023/03/01 07:40:14;;;;;;;70.60;45.83;;;21.80;51.70;;;;;;4975671;28;20460;-72
2023/03/01 07:42:42;;;;;;;77.77;52.90;;;21.80;51.80;;;;;;4975975;28;20939;-70
2023/03/01 07:45:11;;;;;;;58.53;35.40;;;21.80;51.80;;;;;;4975956;28;20449;-71
2023/03/01 07:47:40;;;;;;;76.17;46.53;;;21.80;52.20;;;;;;4975596;28;20834;-71
2023/03/01 07:50:10;;;;;;;68.30;42.90;;;21.80;52.10;;;;;;4975999;28;20446;-71
2023/03/01 07:52:38;;;;;;;53.70;36.03;;;21.90;52.20;;;;;;4975098;28;20900;-71
2023/03/01 07:55:08;;;;;;;51.73;34.40;;;21.90;51.70;;;;;;4975679;28;20779;-71
2023/03/01 07:57:36;;;;;;;56.13;34.57;;;21.90;51.70;;;;;;4958463;28;20575;-71
2023/03/01 08:00:05;;;;;;;49.93;32.17;;;21.90;51.70;;;;;;4975162;28;20458;-70
2023/03/01 08:06:14;;;;;;;43.90;28.30;;;21.90;51.80;;;;;;4974949;28;20448;-70
2023/03/01 08:08:42;;;;;;;47.17;28.30;;;22.00;51.80;;;;;;4975193;28;20876;-71
2023/03/01 08:11:12;;;;;;;44.70;29.60;;;22.00;51.80;;;;;;4975055;28;20477;-71
2023/03/01 08:13:41;;;;;;;39.80;27.27;;;22.00;51.90;;;;;;4975167;28;20536;-71
2023/03/01 08:16:12;;;;;;;41.30;28.20;;;22.00;51.90;;;;;;4974897;28;20476;-71
2023/03/01 08:18:41;;;;;;;40.03;27.20;;;22.10;51.90;;;;;;4975579;28;20457;-72
2023/03/01 08:21:12;;;;;;;40.93;25.53;;;22.10;51.90;;;;;;4958145;28;20442;-69
2023/03/01 08:23:41;;;;;;;41.60;25.37;;;22.10;51.80;;;;;;4975653;28;20522;-69
2023/03/01 08:26:11;;;;;;;37.90;25.13;;;22.20;51.90;;;;;;4958264;28;20815;-69
2023/03/01 08:28:40;;;;;;;39.00;25.67;;;22.20;51.80;;;;;;4974587;28;20419;-69
2023/03/01 08:31:16;;;;;;;35.90;22.33;;;22.30;51.80;;;;;;4974855;28;20507;-70
2023/03/01 08:33:44;;;;;;;32.80;22.60;;;22.40;51.70;;;;;;4974993;28;20609;-69
2023/03/01 08:36:14;;;;;;;25.50;19.77;;;22.40;51.70;;;;;;4975547;28;20468;-70
2023/03/01 08:38:42;;;;;;;29.97;21.60;;;22.50;51.70;;;;;;4975515;28;20509;-70
2023/03/01 08:41:11;;;;;;;33.20;20.30;;;22.50;51.60;;;;;;4975149;28;20426;-69
2023/03/01 08:43:39;;;;;;;30.93;18.77;;;22.50;51.60;;;;;;4974863;28;20474;-69
2023/03/01 08:46:07;;;;;;;27.83;17.50;;;22.60;51.40;;;;;;4975013;28;20500;-69
2023/03/01 08:48:35;;;;;;;24.50;17.13;;;22.60;51.20;;;;;;4975182;28;20791;-69
2023/03/01 08:51:11;;;;;;;18.40;14.03;;;22.60;51.10;;;;;;4975268;28;20505;-70
2023/03/01 08:53:41;;;;;;;20.10;15.00;;;22.60;51.30;;;;;;4974860;28;20462;-70
2023/03/01 08:56:10;;;;;;;20.07;15.23;;;22.60;51.20;;;;;;4975086;28;20422;-70
2023/03/01 08:58:39;;;;;;;17.77;13.90;;;22.60;51.10;;;;;;4974620;28;20454;-70
2023/03/01 09:01:12;;;;;;;16.40;11.90;;;22.60;51.00;;;;;;4975171;28;20454;-70
2023/03/01 09:03:40;;;;;;;19.10;12.07;;;22.50;51.00;;;;;;4974821;28;20898;-70
2023/03/01 09:06:09;;;;;;;16.90;11.63;;;22.60;51.00;;;;;;4974665;28;20430;-70
2023/03/01 09:08:40;;;;;;;16.13;11.63;;;22.60;51.00;;;;;;4974640;28;20450;-70
2023/03/01 09:11:10;;;;;;;15.57;11.10;;;22.60;51.00;;;;;;4975113;28;20513;-70
2023/03/01 09:13:38;;;;;;;15.07;9.83;;;22.60;51.00;;;;;;4974215;28;20953;-70
2023/03/01 09:16:11;;;;;;;12.90;10.03;;;22.50;51.00;;;;;;4974318;28;20743;-70
2023/03/01 09:18:40;;;;;;;17.90;11.20;;;22.60;51.00;;;;;;4974333;28;20439;-70
2023/03/01 09:21:10;;;;;;;10.20;9.10;;;22.60;51.00;;;;;;4956798;28;20446;-70
2023/03/01 09:23:41;;;;;;;10.10;8.47;;;22.50;51.10;;;;;;4975092;28;20893;-69
2023/03/01 09:26:10;;;;;;;11.77;8.83;;;22.50;51.00;;;;;;4974429;28;20434;-69
2023/03/01 09:28:40;;;;;;;10.00;8.60;;;22.50;51.00;;;;;;4974649;28;20430;-70
2023/03/01 09:31:09;;;;;;;9.50;8.47;;;22.50;51.10;;;;;;4974657;28;20418;-69
2023/03/01 09:33:37;;;;;;;12.23;8.50;;;22.50;51.00;;;;;;4974343;28;20427;-69
2023/03/01 09:36:08;;;;;;;12.50;9.47;;;22.50;51.00;;;;;;4974542;28;20529;-70
2023/03/01 09:38:36;;;;;;;9.33;8.20;;;22.50;51.00;;;;;;4974359;28;20555;-70
2023/03/01 09:41:11;;;;;;;9.00;8.10;;;22.50;51.00;;;;;;4976789;28;20435;-70
2023/03/01 09:43:45;;;;;;;10.90;7.50;;;22.50;51.00;;;;;;4977911;28;20882;-70
2023/03/01 09:46:16;;;;;;;8.77;7.97;;;22.50;51.00;;;;;;4978069;28;20453;-71
2023/03/01 09:48:49;;;;;;;7.70;7.00;;;22.50;51.00;;;;;;4977958;28;20513;-70
2023/03/01 09:51:20;;;;;;;7.80;7.10;;;22.60;50.90;;;;;;4977437;28;20469;-71
2023/03/01 09:53:48;;;;;;;8.10;7.40;;;22.60;50.80;;;;;;4977205;28;20455;-70
2023/03/01 09:56:22;;;;;;;8.00;6.40;;;22.70;50.60;;;;;;4977467;28;20430;-70
2023/03/01 09:58:58;;;;;;;8.10;7.30;;;22.70;50.20;;;;;;4977717;28;20568;-70
2023/03/01 10:01:34;;;;;;;7.93;6.43;;;22.70;50.30;;;;;;4977281;28;20518;-70
2023/03/01 10:04:19;;;;;;;8.03;6.07;;;22.70;50.30;;;;;;4977314;28;20882;-70
2023/03/01 10:07:03;;;;;;;8.70;7.17;;;22.70;50.30;;;;;;4977399;28;20442;-71
2023/03/01 10:09:34;;;;;;;7.70;6.33;;;22.80;50.30;;;;;;4977585;28;20889;-70
2023/03/01 10:12:09;;;;;;;7.47;6.70;;;22.80;50.30;;;;;;4977499;28;20495;-70
2023/03/01 10:14:41;;;;;;;6.80;6.10;;;22.80;50.20;;;;;;4976987;28;20470;-71
2023/03/01 10:17:18;;;;;;;7.53;6.93;;;22.80;50.20;;;;;;4977078;28;20466;-71
2023/03/01 10:19:48;;;;;;;6.27;5.70;;;22.80;50.20;;;;;;4977407;28;20478;-71
2023/03/01 10:22:21;;;;;;;7.07;6.37;;;22.90;50.20;;;;;;4959935;28;20450;-71
2023/03/01 10:24:50;;;;;;;8.07;6.20;;;22.90;50.20;;;;;;4976855;28;20427;-71
2023/03/01 10:27:24;;;;;;;6.43;5.90;;;22.90;50.20;;;;;;4976832;28;20518;-71
2023/03/01 10:30:00;;;;;;;6.47;5.90;;;23.00;50.10;;;;;;4976851;28;20904;-71
2023/03/01 10:32:28;;;;;;;6.67;6.13;;;23.00;50.10;;;;;;4977759;28;20478;-72
2023/03/01 10:34:57;;;;;;;7.00;6.43;;;23.00;50.10;;;;;;4977007;28;20534;-71
2023/03/01 10:37:27;;;;;;;7.10;5.57;;;23.00;50.10;;;;;;4976490;28;20518;-71
2023/03/01 10:39:57;;;;;;;5.87;5.37;;;23.10;49.80;;;;;;4976760;28;20433;-71
2023/03/01 10:42:30;;;;;;;6.77;6.07;;;23.10;49.80;;;;;;4976482;28;20514;-71
2023/03/01 10:45:10;;;;;;;6.27;5.77;;;23.10;49.70;;;;;;4976946;28;20927;-71
2023/03/01 10:47:39;;;;;;;6.80;6.30;;;23.20;49.60;;;;;;4977200;28;20534;-71
2023/03/01 10:50:19;;;;;;;6.40;5.80;;;23.20;49.60;;;;;;4976628;28;20422;-71
2023/03/01 10:52:58;;;;;;;6.70;6.07;;;23.30;49.70;;;;;;4976698;28;20960;-72
2023/03/01 10:55:32;;;;;;;5.53;5.03;;;23.30;49.70;;;;;;4976575;28;20491;-72
2023/03/01 10:58:22;;;;;;;6.37;5.63;;;23.30;49.60;;;;;;4976784;28;20518;-72
2023/03/01 11:00:52;;;;;;;6.87;6.27;;;23.30;49.50;;;;;;4976420;28;20527;-72
2023/03/01 11:03:24;;;;;;;5.80;5.20;;;23.40;49.50;;;;;;4977034;28;20437;-72
2023/03/01 11:05:58;;;;;;;6.17;5.67;;;23.60;49.20;;;;;;4976706;28;20429;-72
2023/03/01 11:08:39;;;;;;;5.33;4.83;;;23.70;49.00;;;;;;4976575;28;20461;-72
2023/03/01 11:11:20;;;;;;;5.60;5.07;;;23.90;48.80;;;;;;4976779;28;20436;-72
2023/03/01 11:13:56;;;;;;;5.63;5.23;;;24.00;48.60;;;;;;4976435;28;20782;-72
2023/03/01 11:16:28;;;;;;;5.93;5.43;;;24.20;48.40;;;;;;4976815;28;20464;-72
2023/03/01 11:19:19;;;;;;;5.67;5.17;;;24.40;48.10;;;;;;4975613;28;20466;-72
2023/03/01 11:21:57;;;;;;;6.10;5.50;;;24.50;48.10;;;;;;4964121;28;20535;-72
2023/03/01 11:24:35;;;;;;;6.57;5.80;;;24.70;47.80;;;;;;4976653;28;20427;-73
2023/03/01 11:27:07;;;;;;;5.33;4.83;;;24.80;47.50;;;;;;4976220;28;20429;-74
2023/03/01 11:29:41;;;;;;;6.00;5.50;;;24.90;47.30;;;;;;4945496;23;20842;-73
2023/03/01 11:32:16;;;;;;;5.40;4.90;;;25.00;47.20;;;;;;4937674;29;20438;-73
2023/03/01 11:34:49;;;;;;;6.00;5.50;;;25.10;47.00;;;;;;4937616;29;20521;-74
2023/03/01 11:37:29;;;;;;;5.60;5.20;;;25.10;46.90;;;;;;4936891;29;20425;-74
2023/03/01 11:40:06;;;;;;;5.40;4.90;;;25.10;46.80;;;;;;4937462;29;20820;-73
2023/03/01 11:42:48;;;;;;;5.30;4.90;;;25.20;46.60;;;;;;4937405;29;20422;-74
2023/03/01 11:45:19;;;;;;;5.73;5.30;;;25.10;46.60;;;;;;4937391;29;20883;-73
2023/03/01 11:47:59;;;;;;;5.30;4.90;;;25.20;46.60;;;;;;4937203;29;20529;-73
2023/03/01 11:50:36;;;;;;;6.40;5.80;;;25.10;46.60;;;;;;4937587;29;20436;-73
2023/03/01 11:53:24;;;;;;;5.10;4.70;;;25.10;46.70;;;;;;4936755;29;20421;-74
2023/03/01 11:56:09;;;;;;;6.07;5.47;;;25.10;46.70;;;;;;4979863;23;21033;-74
2023/03/01 11:58:55;;;;;;;6.00;5.47;;;25.10;46.70;;;;;;4995173;28;20459;-74
2023/03/01 12:01:45;;;;;;;5.17;4.77;;;25.10;46.70;;;;;;4994576;28;20457;-74
2023/03/01 12:05:07;;;;;;;5.00;4.60;;;25.10;46.90;;;;;;4993599;28;20939;-73
2023/03/01 12:07:45;;;;;;;6.87;6.23;;;25.20;46.80;;;;;;4915813;29;20831;-73
2023/03/01 12:10:22;;;;;;;6.90;6.40;;;25.20;47.00;;;;;;4983112;28;20461;-72
2023/03/01 12:13:18;;;;;;;5.60;5.10;;;25.30;47.00;;;;;;4994366;28;20874;-72
2023/03/01 12:16:07;;;;;;;5.00;4.60;;;25.30;46.90;;;;;;4995318;28;20876;-72
2023/03/01 12:18:54;;;;;;;5.27;4.83;;;25.30;46.90;;;;;;4994406;28;20469;-73
2023/03/01 12:21:37;;;;;;;5.10;4.70;;;25.30;46.90;;;;;;4994484;28;20898;-73
2023/03/01 12:24:21;;;;;;;5.77;5.23;;;25.40;46.90;;;;;;4994717;28;20427;-73
2023/03/01 12:26:59;;;;;;;7.43;6.57;;;25.40;46.90;;;;;;4994737;28;20496;-72
2023/03/01 12:29:33;;;;;;;6.10;5.60;;;25.40;46.80;;;;;;4994648;28;20467;-72
2023/03/01 12:32:32;;;;;;;6.20;5.60;;;25.50;46.80;;;;;;4994394;28;20427;-73
2023/03/01 12:35:27;;;;;;;5.70;5.20;;;25.50;46.80;;;;;;4991082;28;20462;-72
2023/03/01 12:38:05;;;;;;;6.37;5.80;;;25.50;46.70;;;;;;4994536;28;20448;-72
2023/03/01 12:41:10;;;;;;;7.73;6.53;;;25.50;46.70;;;;;;4994191;28;20432;-74
2023/03/01 12:43:51;;;;;;;6.37;5.73;;;25.50;46.60;;;;;;4982740;28;20478;-73
2023/03/01 12:46:35;;;;;;;6.27;5.77;;;25.50;46.70;;;;;;4994044;28;20517;-73
2023/03/01 12:49:10;;;;;;;6.87;6.30;;;25.50;46.60;;;;;;4994521;28;20534;-73
2023/03/01 12:51:52;;;;;;;7.10;6.50;;;25.50;46.60;;;;;;4995008;28;20860;-72
2023/03/01 12:54:28;;;;;;;6.33;5.83;;;25.60;46.60;;;;;;4994119;28;20508;-75
2023/03/01 12:56:58;;;;;;;6.20;5.60;;;25.60;46.60;;;;;;4993806;28;20523;-74
2023/03/01 12:59:37;;;;;;;7.80;5.70;;;25.60;46.50;;;;;;4994079;28;20476;-74
2023/03/01 13:02:18;;;;;;;6.67;6.07;;;25.70;46.70;;;;;;4994596;28;20791;-74
2023/03/01 13:05:00;;;;;;;5.97;5.37;;;25.70;46.70;;;;;;4993633;28;20416;-74
2023/03/01 13:07:38;;;;;;;6.97;5.83;;;25.80;46.90;;;;;;4993759;28;20453;-74
2023/03/01 13:10:27;;;;;;;5.27;4.77;;;25.80;46.90;;;;;;4994466;28;20427;-73
2023/03/01 13:13:10;;;;;;;6.93;6.33;;;25.80;47.00;;;;;;4994260;28;20451;-73
2023/03/01 13:15:40;;;;;;;5.23;4.83;;;25.90;47.10;;;;;;4995116;28;20957;-74
2023/03/01 13:18:32;;;;;;;6.53;5.80;;;25.90;47.10;;;;;;4998230;28;20416;-73